ケープタウン国際空港の過去48時間の天気

ケープタウン国際空港 (Cape Town, Cape Town International Airport)

現在時刻: 1/24 14:19 SAST (1/24 12:19 UTC) 以下の時間は現地時間です。

過去48時間のMETAR気象情報
時間 風向 風速(m/s) 視程 気温(℃) 湿度(%) 気圧(hPa) 天気現象
24 14:00 南南西 5 10km以上 28 45 1011
24 13:00 南南西 4 10km以上 27 48 1011
24 12:00 3 10km以上 27 48 1011
24 11:00 北西 4 10km以上 25 50 1011
24 10:54 北西 4 10km以上 25 50 1011
24 10:00 2 10km以上 26 51 1011
24 09:00 3 10km以上 24 54 1010
24 08:00 南南東 5 10km以上 22 65 1010
24 07:00 3 10km以上 20 73 1009
24 06:00 6 10km以上 19 78 1008
24 05:00 6 10km以上 19 78 1008
24 04:00 6 10km以上 19 73 1008
24 03:00 5 10km以上 20 68 1008
24 02:00 5 10km以上 19 73 1009
24 01:00 9 10km以上 20 68 1009
24 00:00 3 10km以上 20 68 1009
23 23:00 南南西 2 10km以上 21 64 1009
23 22:00 南南西 4 10km以上 22 57 1009
23 21:00 不定 2 10km以上 22 57 1009
23 20:00 南東 5 10km以上 24 54 1008
23 19:00 南東 8 10km以上 26 48 1008
23 18:00 南東 8 10km以上 28 40 1008
23 17:00 南東 8 10km以上 30 35 1009
23 16:00 南東 8 10km以上 30 35 1009
23 15:00 南東 9 10km以上 29 35 1010
23 14:00 南東 9 10km以上 29 35 1011
23 13:00 南南東 7 10km以上 29 33 1011
23 12:00 南東 6 10km以上 28 35 1012
23 11:00 南東 6 10km以上 27 34 1012
23 10:00 南南東 5 10km以上 26 39 1012
23 09:00 南東 5 10km以上 24 44 1012
23 08:00 南東 2 10km以上 22 50 1012
23 07:00 不定 1 10km以上 20 60 1012
23 06:54 不定 1 10km以上 20 60 1012
23 06:00 南東 3 10km以上 17 72 1011
23 05:00 南南東 4 10km以上 18 64 1011
23 04:00 南南東 4 10km以上 19 64 1011
23 03:00 南南東 4 10km以上 19 60 1011
23 02:00 南東 3 10km以上 19 60 1011
23 01:00 南東 4 10km以上 19 60 1011
23 00:00 南南東 6 10km以上 19 60 1012
22 23:00 南東 6 10km以上 20 49 1012
22 22:00 南東 6 10km以上 20 60 1012
22 21:00 南東 8 10km以上 20 68 1012
22 20:00 南南東 9 10km以上 20 68 1012
22 19:00 南東 10 10km以上 22 60 1012
22 18:00 南南東 10 10km以上 23 57 1011
22 17:00 南東 9 10km以上 26 48 1011
22 16:00 南東 9 10km以上 25 50 1012
22 15:00 南東 10 10km以上 26 51 1012
FACT 241200Z 21010KT CAVOK 28/15 Q1011 NOSIG
FACT 241100Z 20008KT 170V240 CAVOK 27/15 Q1011 NOSIG
FACT 241000Z VRB06KT CAVOK 27/15 Q1011 NOSIG
FACT 240900Z 31008KT 280V340 CAVOK 25/14 Q1011 NOSIG
FACT 240854Z 31008KT 280V340 CAVOK 25/14 Q1011 NOSIG
FACT 240800Z 19004KT 140V230 CAVOK 26/15 Q1011 NOSIG
FACT 240700Z 19006KT 130V240 CAVOK 24/14 Q1010 NOSIG
FACT 240600Z 15009KT CAVOK 22/15 Q1010 NOSIG
FACT 240500Z 18006KT CAVOK 20/15 Q1009 NOSIG
FACT 240400Z 17011KT CAVOK 19/15 Q1008 NOSIG
FACT 240300Z 18012KT CAVOK 19/15 Q1008 NOSIG
FACT 240200Z 18012KT CAVOK 19/14 Q1008 NOSIG
FACT 240100Z 19009KT CAVOK 20/14 Q1008 NOSIG
FACT 240000Z 19009KT CAVOK 19/14 Q1009 NOSIG
FACT 232300Z 19017KT CAVOK 20/14 Q1009 NOSIG
FACT 232200Z 18006KT CAVOK 20/14 Q1009 NOSIG
FACT 232100Z 21004KT 160V240 CAVOK 21/14 Q1009 NOSIG
FACT 232000Z 20007KT CAVOK 22/13 Q1009 NOSIG
FACT 231900Z VRB03KT CAVOK 22/13 Q1009 NOSIG
FACT 231800Z 14010KT CAVOK 24/14 Q1008 NOSIG
FACT 231700Z 14015KT CAVOK 26/14 Q1008 NOSIG
FACT 231600Z 14015KT CAVOK 28/13 Q1008 NOSIG
FACT 231500Z 14015KT CAVOK 30/13 Q1009 NOSIG
FACT 231400Z 14016KT CAVOK 30/13 Q1009 NOSIG
FACT 231300Z 14018KT CAVOK 29/12 Q1010 NOSIG
FACT 231200Z 14017KT CAVOK 29/12 Q1011 NOSIG
FACT 231100Z 15013KT CAVOK 29/11 Q1011 NOSIG
FACT 231000Z 14011KT 120V180 CAVOK 28/11 Q1012 NOSIG
FACT 230900Z 14011KT 110V170 CAVOK 27/10 Q1012 NOSIG
FACT 230800Z 15010KT CAVOK 26/11 Q1012 NOSIG
FACT 230700Z 14009KT CAVOK 24/11 Q1012 NOSIG
FACT 230600Z 14004KT 100V200 9999 FEW035 22/11 Q1012 NOSIG
FACT 230500Z VRB01KT CAVOK 20/12 Q1012 NOSIG
FACT 230454Z VRB01KT CAVOK 20/12 Q1012 NOSIG
FACT 230400Z 13005KT CAVOK 17/12 Q1011 NOSIG
FACT 230300Z 15007KT CAVOK 18/11 Q1011 NOSIG
FACT 230200Z 15007KT CAVOK 19/12 Q1011 NOSIG
FACT 230100Z 15007KT CAVOK 19/11 Q1011 NOSIG
FACT 230000Z 14006KT CAVOK 19/11 Q1011 NOSIG
FACT 222300Z 14007KT CAVOK 19/11 Q1011 NOSIG
FACT 222200Z 15012KT CAVOK 19/11 Q1012 NOSIG
FACT 222100Z 14011KT CAVOK 20/09 Q1012 NOSIG
FACT 222000Z 14012KT CAVOK 20/12 Q1012 NOSIG
FACT 221900Z 14015KT CAVOK 20/14 Q1012 NOSIG
FACT 221800Z 15017KT 9999 FEW040 20/14 Q1012 NOSIG
FACT 221700Z 14019KT 9999 FEW040 22/14 Q1012 NOSIG
FACT 221600Z 15020KT 9999 FEW040 23/14 Q1011 NOSIG
FACT 221500Z 13017KT 9999 SCT040 26/14 Q1011 NOSIG
FACT 221400Z 14018KT 9999 SCT040 25/14 Q1012 NOSIG
FACT 221300Z 14020KT 9999 FEW025 SCT040 26/15 Q1012 NOSIG